Time;durP1;ratioP1;P1;durP2;ratioP2;P2;SDS_P1;SDS_P2;PMS_P1;PMS_P2;Temp;Humidity;BMP_temperature;BMP_pressure;BME280_temperature;BME280_humidity;BME280_pressure;Samples;Min_cycle;Max_cycle;Signal;HPM_P1;HPM_P2
2022/05/11 00:00:13;;;;;;;9.77;8.97;;;;;;;;;;5071262;28;20830;-75
2022/05/11 00:02:39;;;;;;;10.07;9.17;;;;;;;;;;5037968;28;20445;-75
2022/05/11 00:05:07;;;;;;;9.57;8.67;;;;;;;;;;5071643;28;20474;-75
2022/05/11 00:07:33;;;;;;;10.00;9.10;;;;;;;;;;5068573;28;20540;-75
2022/05/11 00:10:00;;;;;;;9.43;8.50;;;;;;;;;;5051301;28;20818;-75
2022/05/11 00:12:27;;;;;;;8.73;7.97;;;;;;;;;;5071374;28;20458;-75
2022/05/11 00:14:54;;;;;;;9.30;8.50;;;;;;;;;;5054516;28;20434;-75
2022/05/11 00:17:20;;;;;;;11.00;8.07;;;;;;;;;;5072819;28;20532;-75
2022/05/11 00:19:47;;;;;;;8.67;7.83;;;;;;;;;;5071169;28;20517;-75
2022/05/11 00:22:13;;;;;;;9.33;8.43;;;;;;;;;;5062418;28;20454;-75
2022/05/11 00:24:40;;;;;;;8.77;8.00;;;;;;;;;;5053955;28;20548;-75
2022/05/11 00:27:06;;;;;;;7.97;7.17;;;;;;;;;;5072173;28;20992;-75
2022/05/11 00:29:34;;;;;;;8.63;7.83;;;;;;;;;;5053196;28;20770;-75
2022/05/11 00:32:01;;;;;;;7.70;7.07;;;;;;;;;;5058224;28;20486;-75
2022/05/11 00:34:27;;;;;;;8.77;7.20;;;;;;;;;;5071502;28;20442;-75
2022/05/11 00:36:54;;;;;;;7.90;7.20;;;;;;;;;;5071566;28;20434;-75
2022/05/11 00:39:20;;;;;;;7.83;7.13;;;;;;;;;;5071262;28;20450;-75
2022/05/11 00:41:47;;;;;;;7.80;7.10;;;;;;;;;;5071638;28;20442;-75
2022/05/11 00:44:14;;;;;;;9.50;7.27;;;;;;;;;;5053749;28;20430;-75
2022/05/11 00:46:45;;;;;;;8.23;7.33;;;;;;;;;;5053695;28;20482;-75
2022/05/11 00:52:02;;;;;;;7.63;6.93;;;;;;;;;;5051675;28;20516;-75
2022/05/11 00:54:30;;;;;;;7.60;6.90;;;;;;;;;;5036414;28;20434;-75
2022/05/11 00:57:00;;;;;;;8.00;7.30;;;;;;;;;;5053272;28;20783;-75
2022/05/11 00:59:28;;;;;;;7.00;6.20;;;;;;;;;;5070331;28;20446;-75
2022/05/11 01:01:58;;;;;;;8.17;7.27;;;;;;;;;;5050281;28;20446;-75
2022/05/11 01:04:25;;;;;;;7.20;6.50;;;;;;;;;;5052677;28;20958;-75
2022/05/11 01:06:52;;;;;;;7.20;6.60;;;;;;;;;;5064731;28;20456;-75
2022/05/11 01:09:18;;;;;;;7.00;6.40;;;;;;;;;;5052862;28;20646;-75
2022/05/11 01:11:46;;;;;;;7.23;6.53;;;;;;;;;;5052855;28;20485;-75
2022/05/11 01:14:15;;;;;;;6.90;6.30;;;;;;;;;;5070214;28;20426;-75
2022/05/11 01:16:42;;;;;;;7.80;7.10;;;;;;;;;;5070068;28;20438;-75
2022/05/11 01:19:13;;;;;;;8.17;7.37;;;;;;;;;;5070362;28;20528;-75
2022/05/11 01:21:43;;;;;;;7.40;6.70;;;;;;;;;;5053443;28;20446;-75
2022/05/11 01:24:22;;;;;;;8.20;7.33;;;;;;;;;;5052690;28;20445;-75
2022/05/11 01:26:48;;;;;;;7.87;7.27;;;;;;;;;;5071301;28;20519;-75
2022/05/11 01:29:15;;;;;;;10.70;6.73;;;;;;;;;;5070845;28;20438;-75
2022/05/11 01:31:42;;;;;;;8.37;7.57;;;;;;;;;;5054846;28;20446;-75
2022/05/11 01:34:09;;;;;;;8.57;7.80;;;;;;;;;;5049366;28;20524;-75
2022/05/11 01:36:36;;;;;;;8.50;7.70;;;;;;;;;;5071214;28;20435;-75
2022/05/11 01:39:03;;;;;;;8.43;7.60;;;;;;;;;;5052730;28;20441;-75
2022/05/11 01:41:32;;;;;;;8.67;7.53;;;;;;;;;;5053201;28;20954;-75
2022/05/11 01:43:59;;;;;;;8.20;7.40;;;;;;;;;;5069042;28;20461;-75
2022/05/11 01:46:27;;;;;;;7.33;6.67;;;;;;;;;;5069180;28;20478;-75
2022/05/11 01:48:53;;;;;;;7.63;6.93;;;;;;;;;;5052097;28;20457;-75
2022/05/11 01:51:20;;;;;;;8.30;7.47;;;;;;;;;;5053397;28;20461;-75
2022/05/11 01:53:47;;;;;;;8.50;6.70;;;;;;;;;;5051901;28;20494;-74
2022/05/11 01:56:14;;;;;;;7.90;7.20;;;;;;;;;;5052902;28;20925;-75
2022/05/11 01:58:42;;;;;;;7.77;7.03;;;;;;;;;;5052250;28;20815;-75
2022/05/11 02:01:09;;;;;;;7.50;6.80;;;;;;;;;;5052131;28;20457;-75
2022/05/11 02:03:35;;;;;;;10.53;8.50;;;;;;;;;;5070665;28;20430;-75
2022/05/11 02:08:46;;;;;;;7.57;6.97;;;;;;;;;;5048981;28;20533;-75
2022/05/11 02:11:13;;;;;;;7.20;6.60;;;;;;;;;;5063213;28;20481;-75
2022/05/11 02:13:40;;;;;;;7.43;6.70;;;;;;;;;;5070256;28;20422;-75
2022/05/11 02:16:08;;;;;;;8.30;7.50;;;;;;;;;;5070495;28;20799;-75
2022/05/11 02:18:35;;;;;;;7.23;6.53;;;;;;;;;;5051568;28;20590;-75
2022/05/11 02:21:02;;;;;;;8.53;7.73;;;;;;;;;;5051787;28;20438;-75
2022/05/11 02:23:28;;;;;;;7.53;6.83;;;;;;;;;;5047741;28;20773;-75
2022/05/11 02:25:55;;;;;;;7.83;6.70;;;;;;;;;;5074245;28;20469;-75
2022/05/11 02:28:22;;;;;;;8.20;7.50;;;;;;;;;;5074087;28;20449;-74
2022/05/11 02:30:50;;;;;;;7.77;7.17;;;;;;;;;;5065714;28;20441;-75
2022/05/11 02:33:18;;;;;;;7.00;6.40;;;;;;;;;;5072610;28;20499;-75
2022/05/11 02:35:45;;;;;;;8.60;6.40;;;;;;;;;;5074073;28;20523;-75
2022/05/11 02:38:14;;;;;;;8.20;7.50;;;;;;;;;;5056278;28;20434;-74
2022/05/11 02:40:41;;;;;;;6.90;6.30;;;;;;;;;;5055768;28;20441;-74
2022/05/11 02:43:10;;;;;;;8.07;7.37;;;;;;;;;;5056892;28;20452;-75
2022/05/11 02:45:39;;;;;;;8.03;7.23;;;;;;;;;;5055667;28;20477;-75
2022/05/11 02:48:07;;;;;;;8.40;7.60;;;;;;;;;;5055481;28;20448;-74
2022/05/11 02:50:37;;;;;;;8.37;7.57;;;;;;;;;;5037272;28;20442;-75
2022/05/11 02:53:07;;;;;;;7.40;6.60;;;;;;;;;;5073682;28;20422;-75
2022/05/11 02:55:34;;;;;;;7.63;6.93;;;;;;;;;;5073451;28;20415;-75
2022/05/11 02:58:01;;;;;;;8.23;7.53;;;;;;;;;;5055233;28;20437;-75
2022/05/11 03:00:27;;;;;;;7.93;7.23;;;;;;;;;;5073786;28;20418;-75
2022/05/11 03:02:54;;;;;;;8.37;7.57;;;;;;;;;;5055394;28;20450;-75
2022/05/11 03:05:20;;;;;;;12.43;7.20;;;;;;;;;;5073805;28;20418;-75
2022/05/11 03:07:48;;;;;;;8.17;7.37;;;;;;;;;;5061632;28;20509;-75
2022/05/11 03:10:15;;;;;;;8.07;7.23;;;;;;;;;;5058644;28;20443;-75
2022/05/11 03:12:41;;;;;;;8.57;7.10;;;;;;;;;;5053891;28;20533;-75
2022/05/11 03:15:09;;;;;;;8.00;7.30;;;;;;;;;;5054479;28;20517;-75
2022/05/11 03:17:36;;;;;;;8.00;7.23;;;;;;;;;;5055456;28;20846;-75
2022/05/11 03:20:03;;;;;;;8.83;7.77;;;;;;;;;;5072817;28;20540;-75
2022/05/11 03:22:29;;;;;;;10.30;7.93;;;;;;;;;;5069862;28;20499;-75
2022/05/11 03:24:57;;;;;;;8.20;7.17;;;;;;;;;;5055400;28;20481;-75
2022/05/11 03:27:23;;;;;;;8.90;8.10;;;;;;;;;;5073974;28;20478;-77
2022/05/11 03:29:51;;;;;;;8.27;7.57;;;;;;;;;;5057761;28;20442;-77
2022/05/11 03:35:01;;;;;;;8.30;7.50;;;;;;;;;;5072777;28;20825;-77
2022/05/11 03:37:28;;;;;;;8.30;7.50;;;;;;;;;;5055166;28;20457;-77
2022/05/11 03:39:54;;;;;;;8.23;7.43;;;;;;;;;;5054806;28;20441;-77
2022/05/11 03:42:28;;;;;;;9.17;8.37;;;;;;;;;;5054497;28;20529;-75
2022/05/11 03:44:55;;;;;;;8.80;7.50;;;;;;;;;;5072823;28;20820;-75
2022/05/11 03:47:21;;;;;;;7.63;6.93;;;;;;;;;;5054400;28;20960;-76
2022/05/11 03:49:48;;;;;;;8.33;7.53;;;;;;;;;;5054864;28;20535;-75
2022/05/11 03:52:16;;;;;;;8.43;7.63;;;;;;;;;;5072480;28;20931;-76
2022/05/11 03:54:42;;;;;;;8.10;7.30;;;;;;;;;;5072671;28;20444;-76
2022/05/11 03:57:09;;;;;;;8.07;7.37;;;;;;;;;;5072721;28;20507;-76
2022/05/11 03:59:38;;;;;;;8.60;7.80;;;;;;;;;;5054655;28;20924;-76
2022/05/11 04:02:05;;;;;;;7.97;7.17;;;;;;;;;;5053515;28;20454;-76
2022/05/11 04:04:31;;;;;;;7.60;6.90;;;;;;;;;;5072865;28;20932;-76
2022/05/11 04:06:57;;;;;;;8.33;7.53;;;;;;;;;;5072992;28;20481;-76
2022/05/11 04:09:24;;;;;;;9.93;7.43;;;;;;;;;;5058094;28;20465;-75
2022/05/11 04:11:50;;;;;;;8.13;7.40;;;;;;;;;;5073018;28;20538;-76
2022/05/11 04:14:17;;;;;;;8.20;7.47;;;;;;;;;;5073009;28;20476;-76
2022/05/11 04:16:45;;;;;;;8.37;7.57;;;;;;;;;;5071521;28;20438;-76
2022/05/11 04:19:11;;;;;;;8.70;7.90;;;;;;;;;;5054706;28;20450;-76
2022/05/11 04:21:37;;;;;;;7.70;6.90;;;;;;;;;;5053386;28;20449;-75
2022/05/11 04:24:04;;;;;;;8.20;7.40;;;;;;;;;;5072670;28;20430;-76
2022/05/11 04:26:32;;;;;;;8.17;7.13;;;;;;;;;;5070250;28;20474;-75
2022/05/11 04:28:58;;;;;;;8.10;7.30;;;;;;;;;;5056483;28;20535;-76
2022/05/11 04:31:25;;;;;;;7.40;6.70;;;;;;;;;;5066184;28;20450;-75
2022/05/11 04:33:53;;;;;;;7.63;6.93;;;;;;;;;;5054646;28;20430;-76
2022/05/11 04:36:21;;;;;;;7.40;6.70;;;;;;;;;;5054479;28;20453;-76
2022/05/11 04:38:47;;;;;;;7.90;7.10;;;;;;;;;;5054279;28;20438;-76
2022/05/11 04:41:14;;;;;;;7.73;7.03;;;;;;;;;;5052992;28;20548;-76
2022/05/11 04:43:40;;;;;;;9.53;7.40;;;;;;;;;;5054528;28;20520;-76
2022/05/11 04:46:07;;;;;;;7.13;6.53;;;;;;;;;;5052942;28;20481;-76
2022/05/11 04:48:33;;;;;;;7.40;6.70;;;;;;;;;;5019453;28;20512;-76
2022/05/11 04:51:02;;;;;;;7.83;7.13;;;;;;;;;;5032766;28;20461;-76
2022/05/11 04:53:29;;;;;;;7.47;6.77;;;;;;;;;;5033643;28;20439;-76
2022/05/11 04:55:56;;;;;;;8.83;8.03;;;;;;;;;;5051689;28;20874;-76
2022/05/11 04:58:23;;;;;;;7.30;6.20;;;;;;;;;;5033967;28;20780;-76
2022/05/11 05:00:49;;;;;;;8.30;7.50;;;;;;;;;;5050654;28;20443;-76
2022/05/11 05:03:16;;;;;;;8.07;6.40;;;;;;;;;;5034190;28;20435;-76
2022/05/11 05:05:43;;;;;;;8.20;7.03;;;;;;;;;;5050383;28;20844;-76
2022/05/11 05:08:11;;;;;;;8.53;7.40;;;;;;;;;;5045435;28;20431;-77
2022/05/11 05:10:38;;;;;;;7.63;6.83;;;;;;;;;;5039937;28;20953;-76
2022/05/11 05:13:05;;;;;;;7.67;6.97;;;;;;;;;;5047318;28;20493;-76
2022/05/11 05:15:32;;;;;;;8.30;7.60;;;;;;;;;;5051143;28;20469;-76
2022/05/11 05:18:01;;;;;;;7.77;7.07;;;;;;;;;;5037288;28;20480;-76
2022/05/11 05:20:27;;;;;;;7.73;6.97;;;;;;;;;;5033859;28;20500;-76
2022/05/11 05:22:54;;;;;;;7.80;7.00;;;;;;;;;;5033273;28;20480;-76
2022/05/11 05:25:22;;;;;;;7.53;6.83;;;;;;;;;;5050025;28;20415;-76
2022/05/11 05:27:49;;;;;;;6.93;6.33;;;;;;;;;;5049530;28;20502;-77
2022/05/11 05:33:00;;;;;;;7.17;6.47;;;;;;;;;;5025413;28;20997;-76
2022/05/11 05:35:27;;;;;;;6.70;6.10;;;;;;;;;;5033464;28;20434;-77
2022/05/11 05:37:53;;;;;;;8.17;7.47;;;;;;;;;;5051861;28;20555;-76
2022/05/11 05:40:20;;;;;;;8.37;7.57;;;;;;;;;;5026075;28;20443;-77
2022/05/11 05:42:48;;;;;;;7.33;6.73;;;;;;;;;;5049482;28;20467;-76
2022/05/11 05:45:15;;;;;;;7.73;7.00;;;;;;;;;;5039535;28;20783;-77
2022/05/11 05:47:41;;;;;;;7.77;7.07;;;;;;;;;;5051949;28;20472;-77
2022/05/11 05:50:08;;;;;;;7.80;7.00;;;;;;;;;;5070276;28;20429;-77
2022/05/11 05:52:35;;;;;;;7.00;6.40;;;;;;;;;;5069903;28;20450;-77
2022/05/11 05:55:02;;;;;;;7.47;6.80;;;;;;;;;;5050689;28;20521;-77
2022/05/11 05:57:28;;;;;;;7.70;7.00;;;;;;;;;;5051521;28;20897;-77
2022/05/11 05:59:56;;;;;;;7.73;6.93;;;;;;;;;;5054794;28;20506;-77
2022/05/11 06:02:23;;;;;;;6.93;6.33;;;;;;;;;;5072653;28;20935;-77
2022/05/11 06:04:50;;;;;;;7.67;6.93;;;;;;;;;;5037442;28;20957;-77
2022/05/11 06:07:18;;;;;;;7.07;6.50;;;;;;;;;;5053424;28;20477;-77
2022/05/11 06:09:45;;;;;;;7.23;6.63;;;;;;;;;;5067056;28;20499;-77
2022/05/11 06:12:12;;;;;;;6.90;6.20;;;;;;;;;;5054668;28;20437;-77
2022/05/11 06:14:39;;;;;;;7.10;6.50;;;;;;;;;;5074387;28;20810;-77
2022/05/11 06:17:14;;;;;;;7.17;6.47;;;;;;;;;;5055884;28;20836;-77
2022/05/11 06:19:40;;;;;;;7.33;6.63;;;;;;;;;;5057175;28;20516;-77
2022/05/11 06:22:07;;;;;;;7.70;7.00;;;;;;;;;;5058507;28;20518;-77
2022/05/11 06:24:33;;;;;;;8.67;6.90;;;;;;;;;;5053039;28;20434;-77
2022/05/11 06:26:59;;;;;;;7.43;6.73;;;;;;;;;;5054710;28;20506;-77
2022/05/11 06:29:26;;;;;;;7.07;6.57;;;;;;;;;;5074203;28;20444;-77
2022/05/11 06:31:52;;;;;;;6.90;6.30;;;;;;;;;;5051879;28;20503;-77
2022/05/11 06:34:24;;;;;;;6.40;5.80;;;;;;;;;;5054091;28;20546;-77
2022/05/11 06:36:51;;;;;;;7.33;6.63;;;;;;;;;;5037136;28;20441;-77
2022/05/11 06:39:18;;;;;;;6.70;6.10;;;;;;;;;;5072527;28;20960;-77
2022/05/11 06:41:44;;;;;;;7.87;7.17;;;;;;;;;;5071948;28;20446;-77
2022/05/11 06:44:11;;;;;;;7.00;6.33;;;;;;;;;;5053536;28;20540;-77
2022/05/11 06:46:37;;;;;;;6.57;5.97;;;;;;;;;;5064587;28;21075;-77
2022/05/11 06:49:07;;;;;;;6.80;6.20;;;;;;;;;;5068587;28;20839;-78
2022/05/11 06:51:40;;;;;;;6.63;6.00;;;;;;;;;;5034494;28;20462;-78
2022/05/11 06:59:34;;;;;;;6.70;6.10;;;;;;;;;;5069490;28;20483;-78
2022/05/11 07:02:03;;;;;;;8.13;6.50;;;;;;;;;;5056009;28;20515;-78
2022/05/11 07:04:33;;;;;;;6.30;5.70;;;;;;;;;;5066257;28;20438;-78
2022/05/11 07:07:02;;;;;;;6.77;6.13;;;;;;;;;;5054906;28;20462;-78
2022/05/11 07:09:31;;;;;;;6.17;5.77;;;;;;;;;;5068151;28;20438;-78
2022/05/11 07:14:41;;;;;;;6.47;5.97;;;;;;;;;;5070845;28;20449;-77
2022/05/11 07:17:08;;;;;;;6.83;6.23;;;;;;;;;;5073274;28;20450;-77
2022/05/11 07:19:35;;;;;;;6.30;5.70;;;;;;;;;;5055240;28;20434;-77
2022/05/11 07:22:03;;;;;;;6.73;6.13;;;;;;;;;;5073149;28;20442;-77
2022/05/11 07:24:29;;;;;;;5.37;4.97;;;;;;;;;;5052587;28;20439;-77
2022/05/11 07:26:56;;;;;;;6.60;6.00;;;;;;;;;;5037128;28;20973;-77
2022/05/11 07:29:23;;;;;;;7.20;5.50;;;;;;;;;;5059854;28;20940;-77
2022/05/11 07:31:50;;;;;;;6.97;6.30;;;;;;;;;;5071878;28;20520;-77
2022/05/11 07:34:16;;;;;;;5.60;5.20;;;;;;;;;;5053044;28;20458;-77
2022/05/11 07:36:43;;;;;;;5.73;5.23;;;;;;;;;;5054833;28;20480;-77
2022/05/11 07:39:11;;;;;;;5.87;5.37;;;;;;;;;;5055127;28;20464;-77
2022/05/11 07:41:38;;;;;;;6.20;5.57;;;;;;;;;;5055256;28;20446;-77
2022/05/11 07:44:05;;;;;;;6.47;5.93;;;;;;;;;;5071646;28;20438;-77
2022/05/11 07:46:34;;;;;;;5.97;5.57;;;;;;;;;;5072525;28;20902;-77
2022/05/11 07:49:01;;;;;;;6.33;5.83;;;;;;;;;;5070946;28;20446;-77
2022/05/11 07:51:27;;;;;;;6.57;6.07;;;;;;;;;;5072206;28;20446;-78
2022/05/11 07:53:53;;;;;;;9.27;5.57;;;;;;;;;;5072199;28;20541;-77
2022/05/11 08:01:49;;;;;;;10.60;6.30;;;;;;;;;;5041393;28;20443;-77
2022/05/11 08:04:15;;;;;;;5.97;5.47;;;;;;;;;;5069363;28;20822;-77
2022/05/11 08:06:42;;;;;;;5.93;5.43;;;;;;;;;;5070968;28;20855;-77
2022/05/11 08:09:09;;;;;;;9.20;5.37;;;;;;;;;;5045147;28;20489;-77
2022/05/11 08:11:37;;;;;;;6.00;5.50;;;;;;;;;;5064237;28;20466;-78
2022/05/11 08:14:03;;;;;;;6.03;5.53;;;;;;;;;;5070572;28;20488;-78
2022/05/11 08:16:30;;;;;;;6.57;5.60;;;;;;;;;;5070689;28;20452;-77
2022/05/11 08:18:56;;;;;;;5.77;5.27;;;;;;;;;;5053780;28;20470;-77
2022/05/11 08:21:25;;;;;;;7.67;6.03;;;;;;;;;;5057936;28;20453;-78
2022/05/11 08:23:51;;;;;;;5.80;5.30;;;;;;;;;;5046044;28;20605;-77
2022/05/11 08:26:18;;;;;;;6.40;5.87;;;;;;;;;;5069717;28;20861;-78
2022/05/11 08:28:45;;;;;;;6.17;5.67;;;;;;;;;;5045702;28;20470;-78
2022/05/11 08:33:56;;;;;;;5.93;5.50;;;;;;;;;;5044957;28;20698;-78
2022/05/11 08:36:24;;;;;;;6.07;5.30;;;;;;;;;;5052139;28;20978;-78
2022/05/11 08:38:52;;;;;;;6.23;5.53;;;;;;;;;;5070173;28;20995;-78
2022/05/11 08:41:28;;;;;;;6.80;6.30;;;;;;;;;;5068824;28;21054;-78
2022/05/11 08:43:58;;;;;;;5.80;5.30;;;;;;;;;;5047481;28;20433;-78
2022/05/11 08:46:32;;;;;;;6.37;5.77;;;;;;;;;;5069159;28;20488;-78
2022/05/11 08:48:59;;;;;;;6.13;5.67;;;;;;;;;;5071278;28;21020;-78
2022/05/11 08:51:30;;;;;;;5.70;5.30;;;;;;;;;;5070047;28;20445;-78
2022/05/11 08:54:03;;;;;;;6.13;5.73;;;;;;;;;;5071110;28;20442;-78
2022/05/11 08:56:30;;;;;;;5.73;5.33;;;;;;;;;;5049440;28;20457;-78
2022/05/11 08:58:58;;;;;;;6.90;6.33;;;;;;;;;;5037370;28;20526;-78
2022/05/11 09:01:29;;;;;;;6.60;6.10;;;;;;;;;;5027261;28;20473;-78
2022/05/11 09:03:58;;;;;;;6.20;5.70;;;;;;;;;;5068926;28;20427;-78
2022/05/11 09:06:26;;;;;;;6.60;6.10;;;;;;;;;;5048298;28;20447;-78
2022/05/11 09:08:53;;;;;;;6.23;5.73;;;;;;;;;;5035284;28;20470;-78
2022/05/11 09:11:25;;;;;;;7.93;6.10;;;;;;;;;;5057094;28;20460;-77
2022/05/11 09:13:51;;;;;;;7.00;6.40;;;;;;;;;;5051710;28;20772;-78
2022/05/11 09:16:21;;;;;;;6.40;5.90;;;;;;;;;;5051593;28;20457;-78
2022/05/11 09:18:47;;;;;;;6.67;6.00;;;;;;;;;;5043666;28;20711;-78
2022/05/11 09:21:22;;;;;;;6.50;6.00;;;;;;;;;;5063997;28;20665;-78
2022/05/11 09:23:51;;;;;;;6.57;6.07;;;;;;;;;;5074346;28;20858;-77
2022/05/11 09:26:28;;;;;;;6.40;5.90;;;;;;;;;;5051314;28;20453;-77
2022/05/11 09:28:55;;;;;;;6.30;5.87;;;;;;;;;;5057331;28;20463;-77
2022/05/11 09:31:27;;;;;;;6.53;5.97;;;;;;;;;;5049432;28;20446;-77
2022/05/11 09:33:58;;;;;;;6.20;5.70;;;;;;;;;;5059625;28;20465;-78
2022/05/11 09:36:35;;;;;;;6.90;6.23;;;;;;;;;;5070339;28;20782;-78
2022/05/11 09:39:05;;;;;;;6.83;6.33;;;;;;;;;;5071739;28;20421;-78
2022/05/11 09:41:33;;;;;;;8.43;6.67;;;;;;;;;;5070648;28;20932;-78
2022/05/11 09:44:00;;;;;;;6.70;6.20;;;;;;;;;;5051827;28;20433;-78
2022/05/11 09:46:31;;;;;;;7.00;6.50;;;;;;;;;;5070240;28;21002;-78
2022/05/11 09:48:59;;;;;;;6.67;6.07;;;;;;;;;;5070304;28;20560;-78
2022/05/11 09:51:28;;;;;;;6.87;6.37;;;;;;;;;;5052090;28;20456;-77
2022/05/11 09:53:56;;;;;;;7.40;6.90;;;;;;;;;;5053248;28;20944;-78
2022/05/11 09:56:24;;;;;;;7.97;7.10;;;;;;;;;;5052112;28;20446;-78
2022/05/11 09:58:51;;;;;;;7.40;6.70;;;;;;;;;;5053211;28;20434;-78
2022/05/11 10:01:22;;;;;;;7.80;7.10;;;;;;;;;;5057016;28;20456;-78
2022/05/11 10:03:52;;;;;;;7.20;6.70;;;;;;;;;;5070188;28;20441;-78
2022/05/11 10:06:21;;;;;;;7.80;7.13;;;;;;;;;;5073213;28;20442;-78
2022/05/11 10:08:49;;;;;;;7.27;6.57;;;;;;;;;;5070851;28;20909;-77
2022/05/11 10:11:18;;;;;;;7.10;6.43;;;;;;;;;;5066051;28;20469;-77
2022/05/11 10:13:47;;;;;;;7.43;6.73;;;;;;;;;;5070919;28;20473;-78
2022/05/11 10:21:54;;;;;;;7.07;6.47;;;;;;;;;;5048971;28;20607;-77
2022/05/11 10:24:25;;;;;;;7.00;6.40;;;;;;;;;;5050237;28;20465;-78
2022/05/11 10:26:57;;;;;;;7.23;6.40;;;;;;;;;;5051661;28;20456;-78
2022/05/11 10:29:30;;;;;;;6.97;6.47;;;;;;;;;;5050100;28;20466;-78
2022/05/11 10:32:02;;;;;;;6.73;6.10;;;;;;;;;;5068347;28;20540;-78
2022/05/11 10:34:38;;;;;;;7.53;7.00;;;;;;;;;;5051386;28;20454;-78
2022/05/11 10:37:08;;;;;;;6.00;5.60;;;;;;;;;;5070161;28;20446;-78
2022/05/11 10:39:38;;;;;;;7.80;6.13;;;;;;;;;;5052870;28;20430;-78
2022/05/11 10:42:10;;;;;;;5.87;5.47;;;;;;;;;;5070956;28;20440;-78
2022/05/11 10:44:46;;;;;;;6.83;6.20;;;;;;;;;;5071365;28;20443;-78
2022/05/11 10:47:17;;;;;;;6.80;6.30;;;;;;;;;;5073043;28;20512;-79
2022/05/11 10:49:53;;;;;;;6.40;5.90;;;;;;;;;;5054114;28;20572;-77
2022/05/11 10:52:26;;;;;;;6.13;5.67;;;;;;;;;;5073691;28;20452;-76
2022/05/11 10:54:58;;;;;;;6.60;6.10;;;;;;;;;;5071252;28;20468;-76
2022/05/11 10:57:27;;;;;;;6.30;5.80;;;;;;;;;;5073911;28;20465;-76
2022/05/11 11:00:07;;;;;;;6.87;6.27;;;;;;;;;;5055426;28;20441;-77
2022/05/11 11:02:42;;;;;;;6.40;6.00;;;;;;;;;;5072574;28;20441;-76
2022/05/11 11:05:10;;;;;;;6.67;6.07;;;;;;;;;;5054998;28;20437;-76
2022/05/11 11:07:40;;;;;;;8.40;5.30;;;;;;;;;;5071135;28;20460;-78
2022/05/11 11:10:11;;;;;;;6.20;5.70;;;;;;;;;;5068958;28;20798;-77
2022/05/11 11:12:49;;;;;;;5.60;5.10;;;;;;;;;;5071933;28;20564;-77
2022/05/11 11:15:18;;;;;;;5.93;5.43;;;;;;;;;;5054807;28;20446;-77
2022/05/11 11:17:46;;;;;;;5.60;5.20;;;;;;;;;;5054923;28;20450;-77
2022/05/11 11:20:16;;;;;;;6.10;5.70;;;;;;;;;;5054436;28;20503;-77
2022/05/11 11:23:01;;;;;;;5.80;5.40;;;;;;;;;;5056959;28;20434;-77
2022/05/11 11:25:28;;;;;;;6.60;6.00;;;;;;;;;;5054673;28;20437;-77
2022/05/11 11:28:08;;;;;;;6.80;6.20;;;;;;;;;;5054303;28;20444;-77
2022/05/11 11:30:35;;;;;;;8.90;5.47;;;;;;;;;;5054988;28;20462;-77
2022/05/11 11:33:21;;;;;;;5.87;5.37;;;;;;;;;;5053843;28;20566;-77
2022/05/11 11:35:53;;;;;;;5.63;5.23;;;;;;;;;;5073203;28;20453;-77
2022/05/11 11:38:23;;;;;;;6.87;6.27;;;;;;;;;;5059179;28;20443;-77
2022/05/11 11:41:05;;;;;;;6.13;5.70;;;;;;;;;;5064398;28;20450;-77
2022/05/11 11:43:43;;;;;;;6.17;5.77;;;;;;;;;;5046680;28;21237;-77
2022/05/11 11:46:09;;;;;;;6.23;5.73;;;;;;;;;;5049533;28;20478;-77
2022/05/11 11:48:38;;;;;;;5.73;5.10;;;;;;;;;;5034309;28;20685;-77
2022/05/11 11:51:10;;;;;;;5.67;5.17;;;;;;;;;;5033874;28;20455;-77
2022/05/11 11:53:39;;;;;;;5.70;5.30;;;;;;;;;;5033846;28;20478;-77
2022/05/11 11:56:25;;;;;;;5.77;5.27;;;;;;;;;;5052718;28;20435;-77
2022/05/11 11:59:03;;;;;;;6.30;5.27;;;;;;;;;;5052718;28;20463;-77
2022/05/11 12:01:31;;;;;;;4.33;4.03;;;;;;;;;;5052245;28;20458;-77
2022/05/11 12:04:00;;;;;;;5.93;4.63;;;;;;;;;;5054249;28;20536;-77
2022/05/11 12:15:02;;;;;;;8.27;5.20;;;;;;;;;;5046446;28;20458;-77
2022/05/11 12:17:32;;;;;;;5.97;5.27;;;;;;;;;;5045468;28;20446;-77
2022/05/11 12:20:01;;;;;;;6.17;5.20;;;;;;;;;;5030258;28;20443;-77
2022/05/11 12:22:29;;;;;;;4.97;4.67;;;;;;;;;;5030055;28;20441;-77
2022/05/11 12:25:02;;;;;;;4.53;4.13;;;;;;;;;;5056557;28;20459;-77
2022/05/11 12:27:30;;;;;;;5.20;4.77;;;;;;;;;;5030842;28;20455;-77
2022/05/11 12:29:59;;;;;;;5.67;4.37;;;;;;;;;;5048622;28;20486;-77
2022/05/11 12:32:30;;;;;;;5.00;4.60;;;;;;;;;;5050933;28;20431;-77
2022/05/11 12:35:00;;;;;;;5.20;4.63;;;;;;;;;;5036572;28;20441;-77
2022/05/11 12:37:28;;;;;;;5.23;4.80;;;;;;;;;;5038842;28;20444;-77
2022/05/11 12:39:57;;;;;;;5.10;4.63;;;;;;;;;;5029078;28;20529;-77
2022/05/11 12:42:28;;;;;;;4.40;4.10;;;;;;;;;;5052045;28;20454;-77
2022/05/11 12:44:55;;;;;;;4.50;4.03;;;;;;;;;;5047145;28;20453;-77
2022/05/11 12:47:21;;;;;;;7.60;4.60;;;;;;;;;;5033654;28;20848;-77
2022/05/11 12:49:48;;;;;;;7.87;4.30;;;;;;;;;;5033199;28;20471;-77
2022/05/11 12:52:16;;;;;;;4.90;4.50;;;;;;;;;;5050311;28;20435;-77
2022/05/11 12:54:54;;;;;;;5.20;4.70;;;;;;;;;;5033253;28;20459;-77
2022/05/11 12:57:22;;;;;;;4.60;4.20;;;;;;;;;;5051280;28;20408;-77
2022/05/11 12:59:49;;;;;;;4.97;4.53;;;;;;;;;;5051534;28;20437;-76
2022/05/11 13:02:17;;;;;;;4.50;4.10;;;;;;;;;;5033061;28;20445;-76
2022/05/11 13:04:51;;;;;;;4.97;4.17;;;;;;;;;;5029943;28;20442;-76
2022/05/11 13:07:18;;;;;;;5.37;4.87;;;;;;;;;;5042477;28;20462;-76
2022/05/11 13:09:46;;;;;;;7.37;4.40;;;;;;;;;;5035851;28;20482;-76
2022/05/11 13:12:14;;;;;;;5.23;4.33;;;;;;;;;;5061549;28;20446;-76
2022/05/11 13:14:46;;;;;;;4.70;4.30;;;;;;;;;;5028261;28;20486;-76
2022/05/11 13:17:18;;;;;;;4.97;4.10;;;;;;;;;;5062227;28;21019;-76
2022/05/11 13:19:52;;;;;;;4.47;4.07;;;;;;;;;;5043634;28;20462;-75
2022/05/11 13:22:21;;;;;;;4.33;4.03;;;;;;;;;;5032683;28;20451;-75
2022/05/11 13:24:49;;;;;;;5.17;4.50;;;;;;;;;;5051196;28;20462;-75
2022/05/11 13:27:30;;;;;;;5.40;4.80;;;;;;;;;;5032011;28;20455;-76
2022/05/11 13:30:15;;;;;;;4.03;3.73;;;;;;;;;;5054531;28;20477;-76
2022/05/11 13:32:42;;;;;;;4.43;4.13;;;;;;;;;;5040489;28;20443;-75
2022/05/11 13:35:17;;;;;;;4.90;4.43;;;;;;;;;;5030551;28;20569;-75
2022/05/11 13:37:53;;;;;;;4.50;4.10;;;;;;;;;;5016152;28;20774;-75
2022/05/11 13:40:25;;;;;;;4.60;4.20;;;;;;;;;;5048039;28;20461;-76
2022/05/11 13:42:52;;;;;;;4.73;4.33;;;;;;;;;;5049177;28;20443;-76
2022/05/11 13:45:20;;;;;;;5.40;4.37;;;;;;;;;;5050332;28;20471;-76
2022/05/11 13:50:35;;;;;;;5.53;4.50;;;;;;;;;;5049877;28;20455;-76
2022/05/11 13:53:03;;;;;;;4.60;4.10;;;;;;;;;;5032074;28;20447;-76
2022/05/11 13:55:31;;;;;;;4.77;4.33;;;;;;;;;;5050109;28;20533;-76
2022/05/11 13:58:21;;;;;;;4.67;3.70;;;;;;;;;;5047970;28;20459;-76
2022/05/11 14:00:49;;;;;;;8.60;4.27;;;;;;;;;;5049571;28;20447;-76
2022/05/11 14:03:16;;;;;;;4.63;4.10;;;;;;;;;;5030077;28;20803;-76
2022/05/11 14:05:44;;;;;;;4.67;4.27;;;;;;;;;;5050126;28;20437;-76
2022/05/11 14:08:12;;;;;;;4.17;3.80;;;;;;;;;;5031127;28;21025;-76
2022/05/11 14:10:38;;;;;;;9.10;3.93;;;;;;;;;;5032410;28;20469;-76
2022/05/11 14:13:05;;;;;;;4.10;3.70;;;;;;;;;;5015478;28;20442;-76
2022/05/11 14:15:32;;;;;;;4.03;3.60;;;;;;;;;;5031799;28;20520;-76
2022/05/11 14:18:00;;;;;;;4.37;4.00;;;;;;;;;;5050041;28;20465;-76
2022/05/11 14:20:27;;;;;;;4.60;4.20;;;;;;;;;;5050028;28;20447;-76
2022/05/11 14:22:54;;;;;;;4.40;4.00;;;;;;;;;;5035137;28;20447;-76
2022/05/11 14:25:21;;;;;;;4.30;3.90;;;;;;;;;;5036293;28;20971;-76
2022/05/11 14:27:47;;;;;;;4.20;3.80;;;;;;;;;;5063524;28;20441;-76
2022/05/11 14:30:15;;;;;;;3.87;3.47;;;;;;;;;;5037641;28;20462;-76
2022/05/11 14:32:43;;;;;;;4.90;3.63;;;;;;;;;;5035701;28;20449;-76
2022/05/11 14:35:13;;;;;;;4.57;4.17;;;;;;;;;;5052834;28;20447;-76
2022/05/11 14:37:40;;;;;;;4.90;4.30;;;;;;;;;;5054513;28;20439;-76
2022/05/11 14:40:08;;;;;;;4.03;3.73;;;;;;;;;;5055195;28;20952;-76
2022/05/11 14:42:36;;;;;;;4.60;3.87;;;;;;;;;;5054716;28;20459;-76
2022/05/11 14:45:03;;;;;;;4.40;4.00;;;;;;;;;;5050842;28;20473;-76
2022/05/11 14:47:31;;;;;;;4.00;3.70;;;;;;;;;;5053213;28;20442;-76
2022/05/11 14:49:59;;;;;;;4.83;4.33;;;;;;;;;;5066392;28;20453;-76
2022/05/11 14:52:27;;;;;;;4.40;3.70;;;;;;;;;;5074512;28;20441;-76
2022/05/11 14:54:53;;;;;;;4.90;4.50;;;;;;;;;;5073969;28;20519;-76
2022/05/11 15:02:52;;;;;;;6.03;3.90;;;;;;;;;;5053586;28;20426;-78
2022/05/11 15:05:18;;;;;;;6.73;4.50;;;;;;;;;;5042442;28;20442;-79
2022/05/11 15:07:47;;;;;;;4.40;4.10;;;;;;;;;;5061099;28;20418;-79
2022/05/11 15:10:14;;;;;;;4.60;4.20;;;;;;;;;;5059631;28;20471;-79
2022/05/11 15:15:25;;;;;;;6.70;4.60;;;;;;;;;;5055148;28;20425;-79
2022/05/11 15:17:52;;;;;;;4.97;4.47;;;;;;;;;;5055051;28;20491;-79
2022/05/11 15:20:19;;;;;;;5.80;4.77;;;;;;;;;;5073104;28;20426;-78
2022/05/11 15:22:47;;;;;;;6.33;5.10;;;;;;;;;;5070970;28;20449;-79
2022/05/11 15:25:16;;;;;;;5.40;5.00;;;;;;;;;;5071554;28;20441;-80
2022/05/11 15:27:47;;;;;;;5.57;4.77;;;;;;;;;;5070052;28;20879;-79
2022/05/11 15:30:17;;;;;;;5.53;5.03;;;;;;;;;;5053507;28;20537;-79
2022/05/11 15:32:46;;;;;;;5.03;4.53;;;;;;;;;;5071731;28;20433;-79
2022/05/11 15:35:15;;;;;;;5.70;5.10;;;;;;;;;;5054841;28;20446;-79
2022/05/11 15:37:46;;;;;;;5.37;4.87;;;;;;;;;;5052238;28;20450;-79
2022/05/11 15:40:14;;;;;;;5.53;4.50;;;;;;;;;;5067797;28;20461;-79
2022/05/11 15:42:43;;;;;;;7.10;4.60;;;;;;;;;;5069066;28;20450;-78